createdAt,value
2023-04-09T00:00:49.339Z,17.67
2023-04-09T00:03:17.655Z,17.20
2023-04-09T00:05:45.990Z,17.45
2023-04-09T00:08:14.303Z,16.85
2023-04-09T00:10:42.509Z,17.30
2023-04-09T00:13:12.169Z,17.23
2023-04-09T00:15:40.523Z,17.20
2023-04-09T00:18:08.720Z,17.05
2023-04-09T00:20:36.984Z,18.42
2023-04-09T00:23:05.417Z,17.45
2023-04-09T00:25:33.811Z,16.48
2023-04-09T00:28:02.065Z,16.98
2023-04-09T00:30:32.365Z,16.77
2023-04-09T00:33:00.561Z,17.02
2023-04-09T00:35:28.808Z,17.08
2023-04-09T00:37:57.082Z,16.80
2023-04-09T00:40:25.369Z,16.58
2023-04-09T00:42:53.721Z,15.30
2023-04-09T00:45:21.962Z,16.38
2023-04-09T00:47:51.708Z,14.90
2023-04-09T00:50:20.073Z,15.23
2023-04-09T00:52:48.376Z,14.40
2023-04-09T00:55:16.804Z,14.82
2023-04-09T00:57:45.120Z,14.80
2023-04-09T01:00:14.526Z,14.23
2023-04-09T01:02:43.334Z,14.85
2023-04-09T01:05:14.141Z,14.93
2023-04-09T01:07:55.339Z,13.40
2023-04-09T01:10:32.092Z,13.55
2023-04-09T01:13:09.690Z,15.73
2023-04-09T01:15:42.014Z,15.20
2023-04-09T01:18:15.508Z,15.07
2023-04-09T01:20:50.973Z,15.18
2023-04-09T01:23:30.536Z,16.75
2023-04-09T01:26:06.082Z,16.27
2023-04-09T01:28:51.085Z,15.25
2023-04-09T01:31:21.649Z,16.50
2023-04-09T01:33:49.936Z,14.80
2023-04-09T01:36:18.976Z,15.27
2023-04-09T01:38:51.366Z,14.45
2023-04-09T01:41:22.711Z,14.65
2023-04-09T01:43:53.390Z,14.77
2023-04-09T01:46:23.021Z,14.48
2023-04-09T01:48:51.948Z,15.00
2023-04-09T01:51:20.690Z,15.60
2023-04-09T01:53:49.610Z,15.98
2023-04-09T01:56:17.782Z,16.40
2023-04-09T01:58:46.010Z,15.57
2023-04-09T02:01:22.246Z,14.65
2023-04-09T02:03:55.513Z,15.38
2023-04-09T02:06:29.609Z,15.10
2023-04-09T02:09:01.438Z,14.60
2023-04-09T02:11:32.022Z,15.77
2023-04-09T02:14:01.269Z,15.25
2023-04-09T02:16:32.373Z,15.43
2023-04-09T02:19:01.681Z,15.23
2023-04-09T02:21:31.795Z,15.55
2023-04-09T02:24:00.006Z,15.25
2023-04-09T02:26:28.320Z,15.80
2023-04-09T02:28:56.559Z,16.10
2023-04-09T02:31:24.871Z,15.75
2023-04-09T02:33:54.631Z,15.88
2023-04-09T02:36:22.896Z,15.55
2023-04-09T02:38:51.338Z,16.08
2023-04-09T02:41:21.093Z,16.30
2023-04-09T02:43:49.321Z,17.20
2023-04-09T02:46:17.608Z,17.85
2023-04-09T02:48:45.991Z,16.23
2023-04-09T02:51:15.667Z,16.35
2023-04-09T02:53:45.683Z,16.30
2023-04-09T02:56:14.045Z,17.50
2023-04-09T02:58:42.276Z,16.33
2023-04-09T03:01:10.558Z,16.95
2023-04-09T03:03:42.163Z,16.95
2023-04-09T03:06:10.727Z,18.35
2023-04-09T03:08:40.366Z,17.10
2023-04-09T03:11:08.622Z,18.13
2023-04-09T03:13:36.810Z,19.40
2023-04-09T03:16:05.318Z,19.10
2023-04-09T03:18:33.637Z,18.58
2023-04-09T03:21:05.598Z,19.48
2023-04-09T03:23:35.209Z,18.67
2023-04-09T03:26:06.159Z,17.05
2023-04-09T03:28:52.839Z,18.25
2023-04-09T03:31:21.255Z,19.63
2023-04-09T03:33:49.790Z,17.65
2023-04-09T03:36:18.113Z,17.85
2023-04-09T03:38:56.704Z,18.15
2023-04-09T03:41:46.675Z,18.55
2023-04-09T03:44:17.583Z,18.67
2023-04-09T03:47:06.528Z,18.98
2023-04-09T03:49:36.804Z,18.10
2023-04-09T03:52:15.688Z,19.10
2023-04-09T03:54:47.040Z,20.30
2023-04-09T03:57:21.727Z,19.85
2023-04-09T03:59:52.899Z,18.90
2023-04-09T04:02:23.719Z,18.75
2023-04-09T04:05:00.805Z,19.17
2023-04-09T04:07:34.182Z,19.10
2023-04-09T04:10:09.726Z,20.08
2023-04-09T04:12:41.713Z,19.90
2023-04-09T04:15:17.192Z,19.98
2023-04-09T04:17:49.615Z,20.33
2023-04-09T04:20:29.956Z,19.92
2023-04-09T04:23:03.877Z,20.85
2023-04-09T04:25:32.959Z,18.83
2023-04-09T04:28:03.977Z,20.42
2023-04-09T04:30:39.230Z,21.15
2023-04-09T04:33:09.824Z,20.75
2023-04-09T04:35:46.419Z,20.73
2023-04-09T04:38:35.588Z,19.50
2023-04-09T04:41:07.867Z,18.63
2023-04-09T04:43:42.468Z,18.92
2023-04-09T04:46:18.153Z,19.15
2023-04-09T04:48:46.610Z,17.48
2023-04-09T04:51:15.402Z,17.02
2023-04-09T04:53:49.623Z,17.65
2023-04-09T04:56:18.016Z,17.38
2023-04-09T04:59:01.908Z,17.17
2023-04-09T05:01:36.910Z,16.77
2023-04-09T05:04:09.612Z,17.02
2023-04-09T05:06:39.331Z,18.13
2023-04-09T05:09:11.640Z,17.13
2023-04-09T05:11:47.811Z,16.63
2023-04-09T05:14:22.516Z,15.93
2023-04-09T05:16:50.897Z,15.80
2023-04-09T05:19:22.021Z,15.13
2023-04-09T05:21:56.315Z,16.38
2023-04-09T05:24:25.516Z,16.73
2023-04-09T05:26:53.770Z,15.80
2023-04-09T05:29:23.947Z,16.00
2023-04-09T05:31:52.230Z,15.15
2023-04-09T05:34:27.696Z,16.67
2023-04-09T05:36:57.708Z,16.73
2023-04-09T05:39:27.260Z,16.40
2023-04-09T05:41:56.737Z,16.25
2023-04-09T05:44:32.267Z,16.67
2023-04-09T05:47:09.819Z,17.42
2023-04-09T05:49:58.001Z,16.42
2023-04-09T05:52:26.928Z,16.15
2023-04-09T05:54:55.846Z,16.00
2023-04-09T05:57:31.860Z,16.50
2023-04-09T06:00:05.391Z,15.43
2023-04-09T06:02:44.817Z,14.18
2023-04-09T06:05:16.045Z,13.57
2023-04-09T06:07:44.332Z,13.10
2023-04-09T06:10:12.971Z,11.50
2023-04-09T06:12:41.229Z,11.05
2023-04-09T06:15:12.628Z,10.20
2023-04-09T06:17:40.994Z,10.73
2023-04-09T06:20:10.447Z,9.27
2023-04-09T06:22:38.904Z,9.82
2023-04-09T06:25:08.025Z,10.43
2023-04-09T06:27:36.247Z,10.40
2023-04-09T06:30:04.715Z,10.32
2023-04-09T06:32:46.761Z,10.50
2023-04-09T06:35:19.691Z,9.98
2023-04-09T06:37:47.922Z,10.65
2023-04-09T06:40:16.278Z,10.55
2023-04-09T06:42:44.488Z,9.18
2023-04-09T06:45:25.613Z,10.52
2023-04-09T06:47:55.308Z,9.50
2023-04-09T06:50:23.624Z,10.32
2023-04-09T06:52:52.942Z,10.02
2023-04-09T06:55:23.816Z,10.00
2023-04-09T06:57:52.102Z,10.63
2023-04-09T07:00:20.502Z,9.43
2023-04-09T07:02:54.943Z,9.13
2023-04-09T07:05:25.256Z,8.85
2023-04-09T07:07:53.590Z,9.77
2023-04-09T07:10:21.846Z,9.13
2023-04-09T07:12:50.046Z,9.55
2023-04-09T07:15:21.005Z,9.55
2023-04-09T07:17:49.274Z,9.70
2023-04-09T07:20:17.748Z,9.65
2023-04-09T07:22:47.490Z,9.57
2023-04-09T07:25:16.190Z,9.52
2023-04-09T07:27:44.649Z,10.20
2023-04-09T07:30:13.114Z,9.25
2023-04-09T07:32:41.364Z,9.05
2023-04-09T07:35:11.794Z,9.05
2023-04-09T07:37:40.121Z,8.52
2023-04-09T07:40:10.877Z,9.63
2023-04-09T07:42:39.505Z,8.68
2023-04-09T07:45:08.957Z,9.13
2023-04-09T07:47:37.253Z,8.73
2023-04-09T07:50:06.002Z,8.70
2023-04-09T07:52:34.263Z,8.75
2023-04-09T07:55:02.486Z,8.00
2023-04-09T07:57:33.955Z,8.68
2023-04-09T08:00:02.507Z,8.65
2023-04-09T08:02:41.501Z,8.48
2023-04-09T08:05:10.929Z,8.32
2023-04-09T08:07:39.294Z,7.85
2023-04-09T08:10:08.516Z,8.10
2023-04-09T08:12:38.149Z,8.23
2023-04-09T08:15:07.023Z,7.55
2023-04-09T08:17:37.163Z,8.07
2023-04-09T08:20:05.588Z,8.15
2023-04-09T08:22:34.695Z,7.80
2023-04-09T08:25:03.171Z,8.27
2023-04-09T08:27:31.501Z,8.00
2023-04-09T08:30:05.545Z,8.55
2023-04-09T08:32:34.008Z,8.43
2023-04-09T08:35:02.462Z,8.20
2023-04-09T08:37:33.406Z,8.63
2023-04-09T08:40:03.970Z,8.68
2023-04-09T08:42:35.703Z,7.82
2023-04-09T08:45:07.530Z,7.60
2023-04-09T08:47:37.721Z,8.63
2023-04-09T08:50:06.691Z,7.97
2023-04-09T08:52:35.877Z,15.88
2023-04-09T08:55:04.297Z,9.57
2023-04-09T08:57:37.952Z,8.45
2023-04-09T09:00:09.423Z,8.43
2023-04-09T09:02:38.790Z,8.15
2023-04-09T09:05:07.948Z,8.38
2023-04-09T09:07:36.393Z,8.40
2023-04-09T09:10:04.931Z,8.50
2023-04-09T09:12:38.571Z,7.75
2023-04-09T09:15:27.526Z,7.60
2023-04-09T09:17:57.040Z,7.90
2023-04-09T09:20:26.678Z,7.78
2023-04-09T09:22:56.747Z,8.02
2023-04-09T09:25:26.722Z,7.85
2023-04-09T09:28:14.764Z,7.30
2023-04-09T09:30:55.212Z,8.23
2023-04-09T09:33:23.770Z,8.32
2023-04-09T09:35:54.534Z,7.78
2023-04-09T09:38:23.122Z,8.65
2023-04-09T09:40:52.714Z,8.38
2023-04-09T09:43:21.593Z,7.60
2023-04-09T09:45:51.484Z,8.02
2023-04-09T09:48:20.276Z,8.07
2023-04-09T09:50:50.379Z,11.60
2023-04-09T09:53:23.925Z,11.30
2023-04-09T09:55:57.658Z,8.77
2023-04-09T09:58:35.144Z,8.50
2023-04-09T10:01:21.162Z,8.93
2023-04-09T10:03:56.900Z,9.27
2023-04-09T10:06:26.765Z,9.98
2023-04-09T10:09:00.944Z,8.50
2023-04-09T10:11:32.633Z,8.63
2023-04-09T10:14:03.540Z,10.45
2023-04-09T10:16:35.004Z,7.80
2023-04-09T10:19:07.058Z,9.02
2023-04-09T10:22:11.367Z,8.23
2023-04-09T10:24:41.081Z,8.45
2023-04-09T10:27:24.958Z,7.80
2023-04-09T10:29:53.519Z,8.80
2023-04-09T10:32:28.486Z,8.25
2023-04-09T10:34:59.450Z,8.43
2023-04-09T10:37:28.851Z,7.90
2023-04-09T10:39:59.880Z,8.05
2023-04-09T10:42:36.617Z,7.20
2023-04-09T10:45:10.076Z,7.15
2023-04-09T10:47:41.450Z,7.32
2023-04-09T10:50:19.078Z,7.10
2023-04-09T10:52:48.766Z,7.28
2023-04-09T10:55:36.682Z,7.88
2023-04-09T10:58:07.130Z,6.88
2023-04-09T11:00:39.758Z,6.22
2023-04-09T11:03:21.977Z,6.97
2023-04-09T11:05:54.740Z,6.47
2023-04-09T11:08:23.359Z,7.75
2023-04-09T11:10:58.693Z,6.70
2023-04-09T11:13:30.167Z,7.18
2023-04-09T11:16:02.584Z,7.65
2023-04-09T11:18:38.273Z,5.82
2023-04-09T11:21:08.875Z,5.63
2023-04-09T11:23:42.831Z,5.57
2023-04-09T11:26:11.456Z,5.25
2023-04-09T11:29:14.367Z,4.50
2023-04-09T11:31:46.359Z,5.22
2023-04-09T11:34:18.809Z,4.95
2023-04-09T11:36:50.910Z,4.38
2023-04-09T11:39:21.345Z,6.78
2023-04-09T11:41:54.255Z,7.00
2023-04-09T11:44:22.975Z,7.60
2023-04-09T11:46:52.147Z,5.50
2023-04-09T11:49:23.484Z,6.50
2023-04-09T11:51:53.274Z,5.70
2023-04-09T11:54:21.605Z,5.80
2023-04-09T11:56:56.058Z,5.15
2023-04-09T11:59:24.653Z,5.55
2023-04-09T12:01:53.460Z,6.38
2023-04-09T12:04:23.916Z,5.68
2023-04-09T12:06:52.600Z,5.07
2023-04-09T12:09:21.068Z,5.68
2023-04-09T12:11:51.558Z,5.80
2023-04-09T12:14:23.838Z,6.20
2023-04-09T12:16:53.462Z,5.40
2023-04-09T12:19:28.135Z,5.47
2023-04-09T12:21:59.812Z,5.78
2023-04-09T12:24:29.356Z,5.90
2023-04-09T12:27:08.714Z,5.80
2023-04-09T12:29:43.239Z,5.10
2023-04-09T12:32:12.062Z,5.55
2023-04-09T12:34:47.532Z,5.45
2023-04-09T12:37:17.814Z,5.85
2023-04-09T12:39:47.753Z,4.70
2023-04-09T12:42:17.738Z,5.50
2023-04-09T12:44:46.117Z,4.90
2023-04-09T12:47:14.778Z,5.90
2023-04-09T12:50:02.503Z,5.90
2023-04-09T12:52:31.107Z,4.72
2023-04-09T12:54:59.958Z,4.85
2023-04-09T12:57:32.671Z,5.10
2023-04-09T13:00:01.689Z,4.72
2023-04-09T13:02:30.442Z,4.18
2023-04-09T13:05:00.571Z,4.55
2023-04-09T13:07:31.583Z,4.60
2023-04-09T13:10:02.161Z,5.07
2023-04-09T13:12:30.720Z,4.68
2023-04-09T13:14:59.459Z,4.63
2023-04-09T13:17:32.105Z,4.85
2023-04-09T13:20:02.662Z,4.65
2023-04-09T13:22:31.078Z,4.85
2023-04-09T13:24:59.603Z,4.05
2023-04-09T13:27:31.119Z,4.78
2023-04-09T13:29:59.980Z,4.32
2023-04-09T13:32:31.069Z,4.53
2023-04-09T13:34:59.711Z,4.47
2023-04-09T13:37:29.645Z,4.68
2023-04-09T13:39:58.521Z,3.90
2023-04-09T13:42:27.902Z,4.85
2023-04-09T13:44:57.565Z,4.30
2023-04-09T13:47:26.038Z,4.53
2023-04-09T13:49:54.776Z,4.55
2023-04-09T13:52:24.639Z,4.43
2023-04-09T13:54:55.693Z,4.88
2023-04-09T13:57:24.378Z,4.97
2023-04-09T13:59:52.754Z,4.80
2023-04-09T14:02:22.204Z,5.10
2023-04-09T14:04:50.800Z,4.78
2023-04-09T14:07:19.283Z,5.45
2023-04-09T14:09:47.735Z,5.05
2023-04-09T14:12:17.371Z,4.78
2023-04-09T14:14:45.646Z,4.75
2023-04-09T14:17:13.930Z,5.15
2023-04-09T14:19:42.163Z,5.00
2023-04-09T14:22:11.576Z,5.07
2023-04-09T14:24:40.916Z,4.40
2023-04-09T14:27:09.271Z,5.45
2023-04-09T14:29:39.713Z,4.97
2023-04-09T14:32:07.952Z,5.07
2023-04-09T14:34:36.817Z,5.05
2023-04-09T14:37:05.381Z,5.32
2023-04-09T14:39:33.851Z,4.65
2023-04-09T14:42:02.305Z,4.70
2023-04-09T14:44:34.519Z,5.35
2023-04-09T14:47:04.384Z,5.25
2023-04-09T14:49:34.450Z,4.40
2023-04-09T14:52:03.052Z,4.75
2023-04-09T14:54:32.276Z,4.50
2023-04-09T14:57:02.829Z,4.50
2023-04-09T14:59:31.400Z,4.50
2023-04-09T15:02:00.081Z,4.10
2023-04-09T15:04:30.160Z,3.95
2023-04-09T15:07:01.403Z,4.78
2023-04-09T15:09:29.727Z,4.65
2023-04-09T15:11:58.013Z,4.68
2023-04-09T15:14:29.132Z,4.22
2023-04-09T15:16:57.426Z,3.85
2023-04-09T15:19:25.948Z,3.80
2023-04-09T15:21:56.396Z,4.25
2023-04-09T15:24:24.602Z,4.70
2023-04-09T15:26:53.027Z,4.32
2023-04-09T15:29:21.540Z,5.28
2023-04-09T15:31:49.837Z,5.32
2023-04-09T15:34:18.091Z,5.50
2023-04-09T15:36:46.812Z,4.72
2023-04-09T15:39:18.299Z,4.45
2023-04-09T15:41:46.751Z,6.05
2023-04-09T15:44:15.112Z,4.75
2023-04-09T15:46:43.556Z,4.88
2023-04-09T15:49:11.949Z,5.35
2023-04-09T15:51:40.428Z,4.88
2023-04-09T15:54:08.867Z,5.05
2023-04-09T15:56:40.262Z,4.65
2023-04-09T15:59:09.139Z,4.80
2023-04-09T16:01:37.904Z,5.82
2023-04-09T16:04:09.526Z,5.88
2023-04-09T16:06:39.831Z,5.32
2023-04-09T16:09:08.355Z,5.32
2023-04-09T16:11:38.251Z,5.20
2023-04-09T16:14:07.546Z,5.40
2023-04-09T16:16:35.921Z,6.22
2023-04-09T16:19:04.430Z,6.82
2023-04-09T16:21:34.540Z,6.88
2023-04-09T16:24:03.050Z,6.57
2023-04-09T16:26:31.412Z,6.20
2023-04-09T16:29:04.345Z,10.07
2023-04-09T16:31:35.908Z,11.20
2023-04-09T16:34:04.583Z,8.00
2023-04-09T16:36:33.731Z,6.93
2023-04-09T16:39:02.380Z,7.15
2023-04-09T16:41:31.086Z,7.75
2023-04-09T16:43:59.577Z,9.40
2023-04-09T16:46:29.406Z,8.35
2023-04-09T16:48:57.904Z,11.18
2023-04-09T16:51:26.444Z,8.80
2023-04-09T16:53:55.121Z,6.90
2023-04-09T16:56:23.721Z,6.63
2023-04-09T16:58:52.605Z,6.10
2023-04-09T17:01:23.980Z,6.20
2023-04-09T17:03:54.062Z,6.55
2023-04-09T17:06:22.597Z,6.72
2023-04-09T17:08:51.106Z,6.80
2023-04-09T17:11:21.270Z,6.88
2023-04-09T17:13:49.762Z,6.85
2023-04-09T17:16:18.486Z,7.97
2023-04-09T17:18:47.216Z,8.25
2023-04-09T17:21:16.902Z,9.00
2023-04-09T17:23:45.698Z,8.30
2023-04-09T17:26:14.293Z,7.97
2023-04-09T17:28:43.070Z,7.28
2023-04-09T17:31:16.046Z,6.80
2023-04-09T17:33:48.121Z,8.55
2023-04-09T17:36:19.149Z,8.15
2023-04-09T17:38:48.491Z,10.63
2023-04-09T17:41:17.000Z,7.45
2023-04-09T17:43:46.287Z,8.05
2023-04-09T17:46:15.037Z,8.25
2023-04-09T17:48:43.728Z,8.93
2023-04-09T17:51:16.538Z,8.75
2023-04-09T17:53:47.540Z,9.43
2023-04-09T17:56:17.800Z,9.13
2023-04-09T17:58:46.731Z,8.30
2023-04-09T18:01:15.361Z,9.35
2023-04-09T18:03:47.030Z,7.53
2023-04-09T18:06:18.196Z,7.32
2023-04-09T18:08:50.408Z,6.95
2023-04-09T18:11:19.345Z,7.93
2023-04-09T18:13:48.187Z,7.18
2023-04-09T18:16:19.661Z,6.05
2023-04-09T18:18:50.019Z,5.95
2023-04-09T18:21:18.376Z,6.53
2023-04-09T18:23:50.461Z,6.85
2023-04-09T18:26:21.018Z,6.07
2023-04-09T18:28:49.762Z,6.60
2023-04-09T18:31:19.272Z,7.65
2023-04-09T18:33:47.855Z,8.00
2023-04-09T18:36:25.909Z,7.55
2023-04-09T18:39:02.415Z,7.80
2023-04-09T18:41:35.916Z,7.78
2023-04-09T18:44:08.363Z,8.27
2023-04-09T18:46:37.518Z,7.70
2023-04-09T18:49:08.546Z,8.52
2023-04-09T18:51:39.058Z,8.57
2023-04-09T18:54:11.459Z,7.40
2023-04-09T18:56:45.975Z,7.78
2023-04-09T18:59:15.465Z,7.70
2023-04-09T19:01:49.472Z,6.70
2023-04-09T19:04:20.343Z,6.65
2023-04-09T19:06:50.325Z,6.25
2023-04-09T19:09:32.428Z,5.88
2023-04-09T19:12:01.788Z,5.88
2023-04-09T19:14:30.548Z,6.72
2023-04-09T19:17:02.278Z,7.55
2023-04-09T19:19:30.677Z,7.68
2023-04-09T19:22:00.737Z,7.93
2023-04-09T19:24:30.725Z,8.73
2023-04-09T19:27:04.809Z,9.02
2023-04-09T19:29:36.802Z,8.60
2023-04-09T19:32:10.551Z,8.00
2023-04-09T19:34:41.017Z,9.63
2023-04-09T19:37:10.902Z,8.60
2023-04-09T19:39:43.001Z,8.60
2023-04-09T19:42:27.583Z,8.65
2023-04-09T19:44:59.810Z,8.68
2023-04-09T19:47:29.483Z,10.25
2023-04-09T19:49:58.520Z,13.13
2023-04-09T19:52:33.583Z,11.73
2023-04-09T19:55:07.249Z,14.73
2023-04-09T19:57:38.470Z,13.82
2023-04-09T20:00:11.800Z,14.43
2023-04-09T20:02:49.344Z,16.05
2023-04-09T20:05:22.272Z,21.35
2023-04-09T20:07:54.251Z,21.63
2023-04-09T20:10:26.164Z,18.00
2023-04-09T20:12:55.837Z,17.08
2023-04-09T20:15:27.489Z,14.57
2023-04-09T20:17:56.218Z,16.77
2023-04-09T20:20:25.151Z,17.02
2023-04-09T20:22:56.316Z,18.90
2023-04-09T20:25:33.947Z,18.65
2023-04-09T20:28:05.044Z,20.17
2023-04-09T20:30:33.486Z,20.02
2023-04-09T20:33:02.292Z,23.00
2023-04-09T20:35:30.717Z,21.52
2023-04-09T20:38:00.207Z,23.23
2023-04-09T20:40:32.028Z,20.30
2023-04-09T20:43:00.803Z,18.13
2023-04-09T20:45:29.346Z,16.30
2023-04-09T20:47:58.245Z,16.60
2023-04-09T20:50:29.018Z,16.92
2023-04-09T20:52:58.147Z,17.85
2023-04-09T20:55:27.231Z,17.38
2023-04-09T20:57:57.339Z,17.02
2023-04-09T21:00:28.810Z,18.73
2023-04-09T21:02:57.528Z,19.48
2023-04-09T21:05:26.196Z,22.30
2023-04-09T21:07:54.989Z,20.55
2023-04-09T21:10:23.355Z,24.20
2023-04-09T21:12:51.817Z,24.33
2023-04-09T21:15:23.076Z,24.80
2023-04-09T21:17:51.791Z,24.23
2023-04-09T21:20:20.904Z,25.40
2023-04-09T21:22:49.987Z,24.52
2023-04-09T21:25:18.648Z,24.38
2023-04-09T21:27:47.360Z,24.77
2023-04-09T21:30:15.986Z,25.25
2023-04-09T21:32:46.306Z,24.40
2023-04-09T21:35:14.986Z,24.48
2023-04-09T21:37:46.060Z,25.67
2023-04-09T21:40:17.686Z,26.50
2023-04-09T21:42:46.518Z,26.23
2023-04-09T21:45:14.995Z,27.05
2023-04-09T21:47:43.371Z,27.52
2023-04-09T21:50:13.776Z,27.65
2023-04-09T21:52:44.957Z,27.08
2023-04-09T21:55:14.109Z,27.10
2023-04-09T21:57:42.699Z,26.33
2023-04-09T22:00:11.823Z,26.42
2023-04-09T22:02:40.992Z,26.33
2023-04-09T22:05:10.402Z,26.42
2023-04-09T22:07:40.832Z,26.33
2023-04-09T22:10:10.878Z,25.23
2023-04-09T22:12:39.422Z,27.10
2023-04-09T22:15:08.926Z,28.10
2023-04-09T22:17:37.476Z,28.20
2023-04-09T22:20:07.201Z,29.40
2023-04-09T22:22:36.218Z,29.50
2023-04-09T22:25:07.228Z,27.90
2023-04-09T22:27:38.197Z,29.40
2023-04-09T22:30:07.733Z,29.27
2023-04-09T22:32:36.291Z,29.05
2023-04-09T22:35:04.705Z,29.58
2023-04-09T22:37:32.921Z,30.80
2023-04-09T22:40:01.281Z,32.70
2023-04-09T22:42:31.260Z,32.70
2023-04-09T22:44:59.507Z,31.67
2023-04-09T22:47:27.721Z,31.15
2023-04-09T22:49:56.243Z,31.10
2023-04-09T22:52:24.609Z,30.48
2023-04-09T22:54:52.913Z,29.45
2023-04-09T22:57:21.417Z,28.10
2023-04-09T22:59:52.823Z,29.88
2023-04-09T23:02:21.529Z,28.52
2023-04-09T23:04:50.141Z,29.40
2023-04-09T23:07:18.689Z,28.52
2023-04-09T23:09:47.926Z,28.17
2023-04-09T23:12:17.600Z,27.58
2023-04-09T23:14:48.208Z,28.25
2023-04-09T23:17:19.227Z,28.63
2023-04-09T23:19:47.755Z,27.80
2023-04-09T23:22:16.275Z,28.80
2023-04-09T23:24:46.199Z,27.98
2023-04-09T23:27:14.679Z,28.60
2023-04-09T23:29:43.017Z,27.90
2023-04-09T23:32:12.317Z,25.55
2023-04-09T23:34:42.287Z,24.45
2023-04-09T23:37:10.799Z,23.85
2023-04-09T23:39:39.554Z,24.00
2023-04-09T23:42:08.033Z,25.05
2023-04-09T23:44:36.453Z,24.58
2023-04-09T23:47:06.003Z,25.27
2023-04-09T23:49:34.932Z,26.00
2023-04-09T23:52:05.060Z,24.55
2023-04-09T23:54:33.713Z,24.33
2023-04-09T23:57:02.108Z,23.95
2023-04-09T23:59:33.950Z,25.65
